sensor_id;sensor_type;location;lat;lon;timestamp;P1;durP1;ratioP1;P2;durP2;ratioP2
75787;SDS011;64406;50.024;14.492;2023-03-01T00:01:47;32.03;;;16.80;;
75787;SDS011;64406;50.024;14.492;2023-03-01T00:04:13;31.90;;;15.87;;
75787;SDS011;64406;50.024;14.492;2023-03-01T00:06:38;36.60;;;16.30;;
75787;SDS011;64406;50.024;14.492;2023-03-01T00:09:04;34.87;;;15.67;;
75787;SDS011;64406;50.024;14.492;2023-03-01T00:11:31;40.50;;;16.30;;
75787;SDS011;64406;50.024;14.492;2023-03-01T00:13:58;36.63;;;15.57;;
75787;SDS011;64406;50.024;14.492;2023-03-01T00:16:27;29.10;;;15.60;;
75787;SDS011;64406;50.024;14.492;2023-03-01T00:18:56;38.23;;;16.30;;
75787;SDS011;64406;50.024;14.492;2023-03-01T00:21:22;35.37;;;15.83;;
75787;SDS011;64406;50.024;14.492;2023-03-01T00:23:48;37.80;;;16.10;;
75787;SDS011;64406;50.024;14.492;2023-03-01T00:26:15;37.10;;;16.00;;
75787;SDS011;64406;50.024;14.492;2023-03-01T00:28:42;33.23;;;15.70;;
75787;SDS011;64406;50.024;14.492;2023-03-01T00:31:10;36.10;;;16.50;;
75787;SDS011;64406;50.024;14.492;2023-03-01T00:33:40;36.00;;;16.33;;
75787;SDS011;64406;50.024;14.492;2023-03-01T00:36:06;34.73;;;16.63;;
75787;SDS011;64406;50.024;14.492;2023-03-01T00:38:37;34.43;;;17.07;;
75787;SDS011;64406;50.024;14.492;2023-03-01T00:41:08;29.87;;;14.83;;
75787;SDS011;64406;50.024;14.492;2023-03-01T00:43:35;31.20;;;14.83;;
75787;SDS011;64406;50.024;14.492;2023-03-01T00:46:05;30.50;;;14.57;;
75787;SDS011;64406;50.024;14.492;2023-03-01T00:48:39;32.30;;;15.30;;
75787;SDS011;64406;50.024;14.492;2023-03-01T00:53:32;33.40;;;15.40;;
75787;SDS011;64406;50.024;14.492;2023-03-01T00:55:59;33.43;;;14.00;;
75787;SDS011;64406;50.024;14.492;2023-03-01T00:58:25;33.93;;;15.50;;
75787;SDS011;64406;50.024;14.492;2023-03-01T01:00:51;30.73;;;16.67;;
75787;SDS011;64406;50.024;14.492;2023-03-01T01:03:17;33.17;;;15.70;;
75787;SDS011;64406;50.024;14.492;2023-03-01T01:05:45;31.90;;;15.93;;
75787;SDS011;64406;50.024;14.492;2023-03-01T01:08:11;34.00;;;15.90;;
75787;SDS011;64406;50.024;14.492;2023-03-01T01:10:37;29.43;;;15.37;;
75787;SDS011;64406;50.024;14.492;2023-03-01T01:13:02;39.43;;;15.67;;
75787;SDS011;64406;50.024;14.492;2023-03-01T01:15:29;38.30;;;16.97;;
75787;SDS011;64406;50.024;14.492;2023-03-01T01:17:58;31.10;;;14.30;;
75787;SDS011;64406;50.024;14.492;2023-03-01T01:20:24;40.57;;;17.07;;
75787;SDS011;64406;50.024;14.492;2023-03-01T01:22:49;39.00;;;16.27;;
75787;SDS011;64406;50.024;14.492;2023-03-01T01:25:16;36.83;;;17.30;;
75787;SDS011;64406;50.024;14.492;2023-03-01T01:27:42;34.07;;;15.47;;
75787;SDS011;64406;50.024;14.492;2023-03-01T01:30:08;33.57;;;15.13;;
75787;SDS011;64406;50.024;14.492;2023-03-01T01:32:34;35.03;;;15.40;;
75787;SDS011;64406;50.024;14.492;2023-03-01T01:35:00;31.77;;;15.90;;
75787;SDS011;64406;50.024;14.492;2023-03-01T01:37:25;32.47;;;16.00;;
75787;SDS011;64406;50.024;14.492;2023-03-01T01:39:59;30.60;;;15.10;;
75787;SDS011;64406;50.024;14.492;2023-03-01T01:42:26;36.73;;;17.87;;
75787;SDS011;64406;50.024;14.492;2023-03-01T01:47:49;40.47;;;18.37;;
75787;SDS011;64406;50.024;14.492;2023-03-01T01:50:16;38.33;;;17.43;;
75787;SDS011;64406;50.024;14.492;2023-03-01T01:52:44;38.80;;;17.30;;
75787;SDS011;64406;50.024;14.492;2023-03-01T01:55:14;39.97;;;19.37;;
75787;SDS011;64406;50.024;14.492;2023-03-01T01:57:45;44.70;;;18.17;;
75787;SDS011;64406;50.024;14.492;2023-03-01T02:00:22;42.67;;;19.67;;
75787;SDS011;64406;50.024;14.492;2023-03-01T02:02:50;41.93;;;19.13;;
75787;SDS011;64406;50.024;14.492;2023-03-01T02:05:22;40.80;;;19.20;;
75787;SDS011;64406;50.024;14.492;2023-03-01T02:07:51;46.80;;;19.67;;
75787;SDS011;64406;50.024;14.492;2023-03-01T02:10:17;41.43;;;18.83;;
75787;SDS011;64406;50.024;14.492;2023-03-01T02:12:43;40.77;;;19.37;;
75787;SDS011;64406;50.024;14.492;2023-03-01T02:15:09;45.60;;;19.57;;
75787;SDS011;64406;50.024;14.492;2023-03-01T02:17:35;45.93;;;21.13;;
75787;SDS011;64406;50.024;14.492;2023-03-01T02:22:39;49.33;;;19.30;;
75787;SDS011;64406;50.024;14.492;2023-03-01T02:27:43;36.63;;;18.77;;
75787;SDS011;64406;50.024;14.492;2023-03-01T02:30:18;43.03;;;18.03;;
75787;SDS011;64406;50.024;14.492;2023-03-01T02:32:45;36.63;;;18.23;;
75787;SDS011;64406;50.024;14.492;2023-03-01T02:35:13;35.43;;;17.40;;
75787;SDS011;64406;50.024;14.492;2023-03-01T02:37:41;43.90;;;18.90;;
75787;SDS011;64406;50.024;14.492;2023-03-01T02:40:11;41.50;;;18.33;;
75787;SDS011;64406;50.024;14.492;2023-03-01T02:42:47;48.60;;;19.35;;
75787;SDS011;64406;50.024;14.492;2023-03-01T02:45:19;46.23;;;18.80;;
75787;SDS011;64406;50.024;14.492;2023-03-01T02:47:45;48.43;;;19.27;;
75787;SDS011;64406;50.024;14.492;2023-03-01T02:50:14;40.10;;;18.53;;
75787;SDS011;64406;50.024;14.492;2023-03-01T02:53:06;41.03;;;17.00;;
75787;SDS011;64406;50.024;14.492;2023-03-01T02:55:40;36.30;;;16.43;;
75787;SDS011;64406;50.024;14.492;2023-03-01T02:58:06;41.43;;;17.00;;
75787;SDS011;64406;50.024;14.492;2023-03-01T03:00:34;39.67;;;18.33;;
75787;SDS011;64406;50.024;14.492;2023-03-01T03:03:11;41.03;;;17.57;;
75787;SDS011;64406;50.024;14.492;2023-03-01T03:05:39;42.10;;;19.40;;
75787;SDS011;64406;50.024;14.492;2023-03-01T03:08:05;44.07;;;18.43;;
75787;SDS011;64406;50.024;14.492;2023-03-01T03:10:34;36.27;;;16.53;;
75787;SDS011;64406;50.024;14.492;2023-03-01T03:13:11;42.73;;;18.23;;
75787;SDS011;64406;50.024;14.492;2023-03-01T03:15:39;41.20;;;18.10;;
75787;SDS011;64406;50.024;14.492;2023-03-01T03:18:06;44.67;;;19.00;;
75787;SDS011;64406;50.024;14.492;2023-03-01T03:20:35;42.93;;;18.27;;
75787;SDS011;64406;50.024;14.492;2023-03-01T03:23:01;35.33;;;18.00;;
75787;SDS011;64406;50.024;14.492;2023-03-01T03:25:27;39.93;;;17.83;;
75787;SDS011;64406;50.024;14.492;2023-03-01T03:27:54;44.90;;;19.83;;
75787;SDS011;64406;50.024;14.492;2023-03-01T03:30:28;38.37;;;18.20;;
75787;SDS011;64406;50.024;14.492;2023-03-01T03:32:55;43.57;;;18.50;;
75787;SDS011;64406;50.024;14.492;2023-03-01T03:35:30;41.97;;;18.03;;
75787;SDS011;64406;50.024;14.492;2023-03-01T03:38:00;34.43;;;17.63;;
75787;SDS011;64406;50.024;14.492;2023-03-01T03:40:28;40.93;;;17.53;;
75787;SDS011;64406;50.024;14.492;2023-03-01T03:43:00;37.57;;;17.47;;
75787;SDS011;64406;50.024;14.492;2023-03-01T03:45:29;43.33;;;18.50;;
75787;SDS011;64406;50.024;14.492;2023-03-01T03:47:54;40.93;;;18.67;;
75787;SDS011;64406;50.024;14.492;2023-03-01T03:50:20;38.90;;;17.63;;
75787;SDS011;64406;50.024;14.492;2023-03-01T03:52:46;42.93;;;17.93;;
75787;SDS011;64406;50.024;14.492;2023-03-01T03:55:17;42.07;;;18.70;;
75787;SDS011;64406;50.024;14.492;2023-03-01T03:57:45;38.67;;;17.73;;
75787;SDS011;64406;50.024;14.492;2023-03-01T04:00:20;42.13;;;18.23;;
75787;SDS011;64406;50.024;14.492;2023-03-01T04:02:49;41.77;;;18.17;;
75787;SDS011;64406;50.024;14.492;2023-03-01T04:05:16;44.30;;;18.40;;
75787;SDS011;64406;50.024;14.492;2023-03-01T04:07:43;39.13;;;17.80;;
75787;SDS011;64406;50.024;14.492;2023-03-01T04:10:10;39.30;;;18.07;;
75787;SDS011;64406;50.024;14.492;2023-03-01T04:12:39;39.87;;;19.13;;
75787;SDS011;64406;50.024;14.492;2023-03-01T04:15:05;39.73;;;16.73;;
75787;SDS011;64406;50.024;14.492;2023-03-01T04:17:42;44.80;;;17.03;;
75787;SDS011;64406;50.024;14.492;2023-03-01T04:20:14;42.30;;;18.17;;
75787;SDS011;64406;50.024;14.492;2023-03-01T04:23:01;40.47;;;17.30;;
75787;SDS011;64406;50.024;14.492;2023-03-01T04:25:39;34.87;;;16.70;;
75787;SDS011;64406;50.024;14.492;2023-03-01T04:28:07;40.07;;;16.70;;
75787;SDS011;64406;50.024;14.492;2023-03-01T04:30:35;40.13;;;17.17;;
75787;SDS011;64406;50.024;14.492;2023-03-01T04:33:02;42.20;;;18.10;;
75787;SDS011;64406;50.024;14.492;2023-03-01T04:35:29;45.57;;;17.57;;
75787;SDS011;64406;50.024;14.492;2023-03-01T04:37:57;48.43;;;17.47;;
75787;SDS011;64406;50.024;14.492;2023-03-01T04:40:23;32.93;;;16.43;;
75787;SDS011;64406;50.024;14.492;2023-03-01T04:42:48;36.37;;;15.80;;
75787;SDS011;64406;50.024;14.492;2023-03-01T04:45:14;40.57;;;18.33;;
75787;SDS011;64406;50.024;14.492;2023-03-01T04:47:40;36.57;;;17.67;;
75787;SDS011;64406;50.024;14.492;2023-03-01T04:50:12;38.30;;;17.27;;
75787;SDS011;64406;50.024;14.492;2023-03-01T04:52:40;46.37;;;18.23;;
75787;SDS011;64406;50.024;14.492;2023-03-01T04:55:07;39.73;;;19.13;;
75787;SDS011;64406;50.024;14.492;2023-03-01T04:57:33;36.60;;;16.20;;
75787;SDS011;64406;50.024;14.492;2023-03-01T04:59:59;39.03;;;17.70;;
75787;SDS011;64406;50.024;14.492;2023-03-01T05:02:24;38.63;;;18.67;;
75787;SDS011;64406;50.024;14.492;2023-03-01T05:04:51;35.90;;;15.73;;
75787;SDS011;64406;50.024;14.492;2023-03-01T05:07:16;36.83;;;17.47;;
75787;SDS011;64406;50.024;14.492;2023-03-01T05:09:46;43.03;;;17.53;;
75787;SDS011;64406;50.024;14.492;2023-03-01T05:12:12;36.13;;;17.63;;
75787;SDS011;64406;50.024;14.492;2023-03-01T05:14:39;39.63;;;17.07;;
75787;SDS011;64406;50.024;14.492;2023-03-01T05:17:05;39.93;;;16.40;;
75787;SDS011;64406;50.024;14.492;2023-03-01T05:19:31;39.33;;;16.63;;
75787;SDS011;64406;50.024;14.492;2023-03-01T05:21:58;33.23;;;16.83;;
75787;SDS011;64406;50.024;14.492;2023-03-01T05:24:27;43.37;;;17.80;;
75787;SDS011;64406;50.024;14.492;2023-03-01T05:26:54;37.37;;;16.97;;
75787;SDS011;64406;50.024;14.492;2023-03-01T05:29:20;38.67;;;17.80;;
75787;SDS011;64406;50.024;14.492;2023-03-01T05:31:54;40.23;;;17.30;;
75787;SDS011;64406;50.024;14.492;2023-03-01T05:34:27;42.70;;;18.20;;
75787;SDS011;64406;50.024;14.492;2023-03-01T05:36:54;37.40;;;17.60;;
75787;SDS011;64406;50.024;14.492;2023-03-01T05:39:20;44.20;;;17.93;;
75787;SDS011;64406;50.024;14.492;2023-03-01T05:41:47;46.87;;;18.90;;
75787;SDS011;64406;50.024;14.492;2023-03-01T05:44:19;46.70;;;18.67;;
75787;SDS011;64406;50.024;14.492;2023-03-01T05:46:45;41.60;;;17.50;;
75787;SDS011;64406;50.024;14.492;2023-03-01T05:49:11;46.57;;;20.60;;
75787;SDS011;64406;50.024;14.492;2023-03-01T05:51:38;41.90;;;20.57;;
75787;SDS011;64406;50.024;14.492;2023-03-01T05:54:05;50.57;;;21.13;;
75787;SDS011;64406;50.024;14.492;2023-03-01T05:56:32;45.73;;;20.83;;
75787;SDS011;64406;50.024;14.492;2023-03-01T05:59:02;42.20;;;19.77;;
75787;SDS011;64406;50.024;14.492;2023-03-01T06:01:30;52.37;;;20.77;;
75787;SDS011;64406;50.024;14.492;2023-03-01T06:03:57;45.47;;;21.57;;
75787;SDS011;64406;50.024;14.492;2023-03-01T06:06:22;45.43;;;20.03;;
75787;SDS011;64406;50.024;14.492;2023-03-01T06:08:51;46.90;;;19.70;;
75787;SDS011;64406;50.024;14.492;2023-03-01T06:11:17;43.20;;;19.97;;
75787;SDS011;64406;50.024;14.492;2023-03-01T06:13:43;42.03;;;18.50;;
75787;SDS011;64406;50.024;14.492;2023-03-01T06:16:10;46.07;;;20.20;;
75787;SDS011;64406;50.024;14.492;2023-03-01T06:18:36;44.57;;;21.13;;
75787;SDS011;64406;50.024;14.492;2023-03-01T06:21:04;48.90;;;20.77;;
75787;SDS011;64406;50.024;14.492;2023-03-01T06:23:32;49.67;;;20.97;;
75787;SDS011;64406;50.024;14.492;2023-03-01T06:25:57;43.47;;;19.93;;
75787;SDS011;64406;50.024;14.492;2023-03-01T06:28:23;52.73;;;20.77;;
75787;SDS011;64406;50.024;14.492;2023-03-01T06:30:49;46.10;;;20.73;;
75787;SDS011;64406;50.024;14.492;2023-03-01T06:33:15;44.33;;;18.83;;
75787;SDS011;64406;50.024;14.492;2023-03-01T06:35:41;40.00;;;18.77;;
75787;SDS011;64406;50.024;14.492;2023-03-01T06:38:07;39.30;;;18.87;;
75787;SDS011;64406;50.024;14.492;2023-03-01T06:40:32;47.90;;;20.17;;
75787;SDS011;64406;50.024;14.492;2023-03-01T06:43:01;44.93;;;20.90;;
75787;SDS011;64406;50.024;14.492;2023-03-01T06:45:30;41.53;;;18.60;;
75787;SDS011;64406;50.024;14.492;2023-03-01T06:48:05;43.70;;;18.83;;
75787;SDS011;64406;50.024;14.492;2023-03-01T06:50:31;40.20;;;18.63;;
75787;SDS011;64406;50.024;14.492;2023-03-01T06:52:58;53.30;;;21.30;;
75787;SDS011;64406;50.024;14.492;2023-03-01T06:55:24;42.67;;;18.70;;
75787;SDS011;64406;50.024;14.492;2023-03-01T06:57:56;47.00;;;19.90;;
75787;SDS011;64406;50.024;14.492;2023-03-01T07:00:23;47.58;;;21.08;;
75787;SDS011;64406;50.024;14.492;2023-03-01T07:02:49;38.83;;;18.63;;
75787;SDS011;64406;50.024;14.492;2023-03-01T07:05:15;44.93;;;20.27;;
75787;SDS011;64406;50.024;14.492;2023-03-01T07:07:41;49.53;;;20.67;;
75787;SDS011;64406;50.024;14.492;2023-03-01T07:10:07;46.53;;;18.20;;
75787;SDS011;64406;50.024;14.492;2023-03-01T07:12:36;41.90;;;18.97;;
75787;SDS011;64406;50.024;14.492;2023-03-01T07:15:03;40.63;;;17.30;;
75787;SDS011;64406;50.024;14.492;2023-03-01T07:17:30;44.07;;;18.83;;
75787;SDS011;64406;50.024;14.492;2023-03-01T07:19:56;45.20;;;18.60;;
75787;SDS011;64406;50.024;14.492;2023-03-01T07:22:22;40.93;;;17.57;;
75787;SDS011;64406;50.024;14.492;2023-03-01T07:24:48;39.53;;;18.30;;
75787;SDS011;64406;50.024;14.492;2023-03-01T07:27:14;44.47;;;19.53;;
75787;SDS011;64406;50.024;14.492;2023-03-01T07:29:39;46.40;;;19.37;;
75787;SDS011;64406;50.024;14.492;2023-03-01T07:32:05;39.17;;;19.13;;
75787;SDS011;64406;50.024;14.492;2023-03-01T07:34:31;45.40;;;19.93;;
75787;SDS011;64406;50.024;14.492;2023-03-01T07:36:57;47.17;;;20.50;;
75787;SDS011;64406;50.024;14.492;2023-03-01T07:39:23;43.37;;;17.63;;
75787;SDS011;64406;50.024;14.492;2023-03-01T07:41:49;40.30;;;17.57;;
75787;SDS011;64406;50.024;14.492;2023-03-01T07:44:15;44.20;;;19.63;;
75787;SDS011;64406;50.024;14.492;2023-03-01T07:46:42;35.80;;;17.87;;
75787;SDS011;64406;50.024;14.492;2023-03-01T07:49:14;36.20;;;17.10;;
75787;SDS011;64406;50.024;14.492;2023-03-01T07:51:42;42.73;;;17.83;;
75787;SDS011;64406;50.024;14.492;2023-03-01T07:54:09;46.07;;;18.83;;
75787;SDS011;64406;50.024;14.492;2023-03-01T07:56:35;37.50;;;16.90;;
75787;SDS011;64406;50.024;14.492;2023-03-01T07:59:02;39.13;;;19.00;;
75787;SDS011;64406;50.024;14.492;2023-03-01T08:01:28;37.60;;;17.40;;
75787;SDS011;64406;50.024;14.492;2023-03-01T08:03:54;41.63;;;17.97;;
75787;SDS011;64406;50.024;14.492;2023-03-01T08:06:20;38.70;;;18.50;;
75787;SDS011;64406;50.024;14.492;2023-03-01T08:08:45;32.13;;;16.00;;
75787;SDS011;64406;50.024;14.492;2023-03-01T08:11:12;35.17;;;17.20;;
75787;SDS011;64406;50.024;14.492;2023-03-01T08:13:39;36.97;;;16.87;;
75787;SDS011;64406;50.024;14.492;2023-03-01T08:16:06;39.50;;;17.23;;
75787;SDS011;64406;50.024;14.492;2023-03-01T08:18:35;35.97;;;17.23;;
75787;SDS011;64406;50.024;14.492;2023-03-01T08:21:01;36.50;;;16.70;;
75787;SDS011;64406;50.024;14.492;2023-03-01T08:23:30;35.87;;;18.30;;
75787;SDS011;64406;50.024;14.492;2023-03-01T08:26:30;35.47;;;15.83;;
75787;SDS011;64406;50.024;14.492;2023-03-01T08:28:48;30.33;;;15.40;;
75787;SDS011;64406;50.024;14.492;2023-03-01T08:31:29;36.63;;;16.83;;
75787;SDS011;64406;50.024;14.492;2023-03-01T08:33:58;35.50;;;15.07;;
75787;SDS011;64406;50.024;14.492;2023-03-01T08:36:26;32.67;;;15.27;;
75787;SDS011;64406;50.024;14.492;2023-03-01T08:38:54;29.23;;;15.53;;
75787;SDS011;64406;50.024;14.492;2023-03-01T08:41:20;40.07;;;15.60;;
75787;SDS011;64406;50.024;14.492;2023-03-01T08:43:45;33.60;;;15.10;;
75787;SDS011;64406;50.024;14.492;2023-03-01T08:46:12;31.70;;;14.60;;
75787;SDS011;64406;50.024;14.492;2023-03-01T08:48:38;29.67;;;14.43;;
75787;SDS011;64406;50.024;14.492;2023-03-01T08:51:14;31.57;;;15.77;;
75787;SDS011;64406;50.024;14.492;2023-03-01T08:53:41;29.13;;;14.60;;
75787;SDS011;64406;50.024;14.492;2023-03-01T08:56:09;31.63;;;15.27;;
75787;SDS011;64406;50.024;14.492;2023-03-01T08:58:35;33.17;;;15.07;;
75787;SDS011;64406;50.024;14.492;2023-03-01T09:01:07;29.73;;;14.97;;
75787;SDS011;64406;50.024;14.492;2023-03-01T09:03:36;35.63;;;14.45;;
75787;SDS011;64406;50.024;14.492;2023-03-01T09:06:03;30.43;;;14.70;;
75787;SDS011;64406;50.024;14.492;2023-03-01T09:08:30;29.00;;;14.90;;
75787;SDS011;64406;50.024;14.492;2023-03-01T09:10:56;26.37;;;13.67;;
75787;SDS011;64406;50.024;14.492;2023-03-01T09:13:22;38.53;;;14.63;;
75787;SDS011;64406;50.024;14.492;2023-03-01T09:15:51;30.63;;;14.70;;
75787;SDS011;64406;50.024;14.492;2023-03-01T09:18:16;27.73;;;14.17;;
75787;SDS011;64406;50.024;14.492;2023-03-01T09:20:42;28.77;;;13.80;;
75787;SDS011;64406;50.024;14.492;2023-03-01T09:23:08;26.47;;;13.20;;
75787;SDS011;64406;50.024;14.492;2023-03-01T09:25:34;31.43;;;15.17;;
75787;SDS011;64406;50.024;14.492;2023-03-01T09:27:59;28.53;;;13.23;;
75787;SDS011;64406;50.024;14.492;2023-03-01T09:30:25;25.73;;;13.03;;
75787;SDS011;64406;50.024;14.492;2023-03-01T09:32:51;25.17;;;13.43;;
75787;SDS011;64406;50.024;14.492;2023-03-01T09:35:17;27.43;;;12.77;;
75787;SDS011;64406;50.024;14.492;2023-03-01T09:37:46;26.40;;;13.13;;
75787;SDS011;64406;50.024;14.492;2023-03-01T09:40:12;21.53;;;12.43;;
75787;SDS011;64406;50.024;14.492;2023-03-01T09:42:55;25.27;;;13.07;;
75787;SDS011;64406;50.024;14.492;2023-03-01T09:45:34;24.07;;;13.07;;
75787;SDS011;64406;50.024;14.492;2023-03-01T09:48:03;26.47;;;12.87;;
75787;SDS011;64406;50.024;14.492;2023-03-01T09:50:34;28.57;;;12.33;;
75787;SDS011;64406;50.024;14.492;2023-03-01T09:53:07;24.70;;;12.40;;
75787;SDS011;64406;50.024;14.492;2023-03-01T10:00:56;27.33;;;12.33;;
75787;SDS011;64406;50.024;14.492;2023-03-01T10:08:52;26.40;;;12.93;;
75787;SDS011;64406;50.024;14.492;2023-03-01T10:11:32;24.40;;;12.07;;
75787;SDS011;64406;50.024;14.492;2023-03-01T10:19:18;23.00;;;11.77;;
75787;SDS011;64406;50.024;14.492;2023-03-01T10:21:48;22.10;;;10.90;;
75787;SDS011;64406;50.024;14.492;2023-03-01T10:24:17;20.38;;;10.75;;
75787;SDS011;64406;50.024;14.492;2023-03-01T10:26:52;21.60;;;11.93;;
75787;SDS011;64406;50.024;14.492;2023-03-01T10:29:26;21.50;;;10.93;;
75787;SDS011;64406;50.024;14.492;2023-03-01T10:32:03;18.98;;;10.68;;
75787;SDS011;64406;50.024;14.492;2023-03-01T10:34:32;21.65;;;12.82;;
75787;SDS011;64406;50.024;14.492;2023-03-01T10:37:04;26.33;;;11.55;;
75787;SDS011;64406;50.024;14.492;2023-03-01T10:39:35;23.75;;;11.48;;
75787;SDS011;64406;50.024;14.492;2023-03-01T10:42:02;26.95;;;11.95;;
75787;SDS011;64406;50.024;14.492;2023-03-01T10:44:44;22.90;;;11.73;;
75787;SDS011;64406;50.024;14.492;2023-03-01T10:47:15;25.80;;;11.25;;
75787;SDS011;64406;50.024;14.492;2023-03-01T10:52:19;28.00;;;12.10;;
75787;SDS011;64406;50.024;14.492;2023-03-01T10:54:59;23.48;;;11.00;;
75787;SDS011;64406;50.024;14.492;2023-03-01T11:00:02;23.70;;;12.00;;
75787;SDS011;64406;50.024;14.492;2023-03-01T11:05:23;22.65;;;11.38;;
75787;SDS011;64406;50.024;14.492;2023-03-01T11:07:57;21.85;;;11.55;;
75787;SDS011;64406;50.024;14.492;2023-03-01T11:13:05;25.35;;;12.45;;
75787;SDS011;64406;50.024;14.492;2023-03-01T11:15:33;21.60;;;12.25;;
75787;SDS011;64406;50.024;14.492;2023-03-01T11:17:58;22.65;;;11.38;;
75787;SDS011;64406;50.024;14.492;2023-03-01T11:20:25;23.73;;;11.40;;
75787;SDS011;64406;50.024;14.492;2023-03-01T11:22:56;24.40;;;12.35;;
75787;SDS011;64406;50.024;14.492;2023-03-01T11:25:26;22.50;;;11.50;;
75787;SDS011;64406;50.024;14.492;2023-03-01T11:27:56;22.25;;;11.57;;
75787;SDS011;64406;50.024;14.492;2023-03-01T11:30:29;19.98;;;11.50;;
75787;SDS011;64406;50.024;14.492;2023-03-01T11:33:10;20.23;;;10.93;;
75787;SDS011;64406;50.024;14.492;2023-03-01T11:35:43;24.98;;;11.70;;
75787;SDS011;64406;50.024;14.492;2023-03-01T11:40:52;21.05;;;11.05;;
75787;SDS011;64406;50.024;14.492;2023-03-01T11:43:34;19.33;;;11.20;;
75787;SDS011;64406;50.024;14.492;2023-03-01T11:51:52;24.48;;;12.18;;
75787;SDS011;64406;50.024;14.492;2023-03-01T12:18:47;21.35;;;12.85;;
75787;SDS011;64406;50.024;14.492;2023-03-01T12:30:09;25.40;;;12.18;;
75787;SDS011;64406;50.024;14.492;2023-03-01T12:32:57;24.02;;;11.95;;
75787;SDS011;64406;50.024;14.492;2023-03-01T12:38:32;20.23;;;11.52;;
75787;SDS011;64406;50.024;14.492;2023-03-01T12:41:21;20.15;;;11.80;;
75787;SDS011;64406;50.024;14.492;2023-03-01T12:44:19;21.88;;;11.68;;
75787;SDS011;64406;50.024;14.492;2023-03-01T12:49:41;23.40;;;11.52;;
75787;SDS011;64406;50.024;14.492;2023-03-01T12:52:18;20.15;;;11.00;;
75787;SDS011;64406;50.024;14.492;2023-03-01T12:54:53;16.15;;;10.43;;
75787;SDS011;64406;50.024;14.492;2023-03-01T12:57:33;21.63;;;11.35;;
75787;SDS011;64406;50.024;14.492;2023-03-01T13:02:45;19.55;;;11.48;;
75787;SDS011;64406;50.024;14.492;2023-03-01T13:05:26;22.83;;;12.13;;
75787;SDS011;64406;50.024;14.492;2023-03-01T13:13:23;15.68;;;9.85;;
75787;SDS011;64406;50.024;14.492;2023-03-01T13:15:51;18.42;;;9.98;;
75787;SDS011;64406;50.024;14.492;2023-03-01T13:20:46;19.25;;;8.73;;
75787;SDS011;64406;50.024;14.492;2023-03-01T13:30:57;17.63;;;10.65;;
75787;SDS011;64406;50.024;14.492;2023-03-01T13:35:52;21.45;;;11.20;;
75787;SDS011;64406;50.024;14.492;2023-03-01T13:46:44;26.30;;;12.70;;
75787;SDS011;64406;50.024;14.492;2023-03-01T13:49:17;20.75;;;12.07;;
75787;SDS011;64406;50.024;14.492;2023-03-01T13:51:51;22.10;;;12.50;;
75787;SDS011;64406;50.024;14.492;2023-03-01T13:54:21;21.17;;;13.68;;
75787;SDS011;64406;50.024;14.492;2023-03-01T13:56:56;22.05;;;13.43;;
75787;SDS011;64406;50.024;14.492;2023-03-01T13:59:24;20.70;;;13.20;;
75787;SDS011;64406;50.024;14.492;2023-03-01T14:01:56;22.30;;;14.43;;
75787;SDS011;64406;50.024;14.492;2023-03-01T14:04:24;26.20;;;14.45;;
75787;SDS011;64406;50.024;14.492;2023-03-01T14:09:43;22.08;;;13.00;;
75787;SDS011;64406;50.024;14.492;2023-03-01T14:19:57;20.70;;;13.65;;
75787;SDS011;64406;50.024;14.492;2023-03-01T14:22:30;17.30;;;11.70;;
75787;SDS011;64406;50.024;14.492;2023-03-01T14:24:59;19.02;;;12.20;;
75787;SDS011;64406;50.024;14.492;2023-03-01T14:27:31;19.85;;;10.93;;
75787;SDS011;64406;50.024;14.492;2023-03-01T14:30:10;19.73;;;11.98;;
75787;SDS011;64406;50.024;14.492;2023-03-01T14:32:39;17.77;;;12.05;;
75787;SDS011;64406;50.024;14.492;2023-03-01T14:35:21;19.10;;;11.88;;
75787;SDS011;64406;50.024;14.492;2023-03-01T14:37:49;16.42;;;11.82;;
75787;SDS011;64406;50.024;14.492;2023-03-01T14:40:25;19.88;;;12.10;;
75787;SDS011;64406;50.024;14.492;2023-03-01T14:42:51;20.10;;;11.40;;
75787;SDS011;64406;50.024;14.492;2023-03-01T14:45:18;18.05;;;12.07;;
75787;SDS011;64406;50.024;14.492;2023-03-01T14:47:45;21.30;;;12.45;;
75787;SDS011;64406;50.024;14.492;2023-03-01T14:52:56;19.63;;;11.95;;
75787;SDS011;64406;50.024;14.492;2023-03-01T14:55:34;20.25;;;11.68;;
75787;SDS011;64406;50.024;14.492;2023-03-01T14:58:08;17.95;;;11.45;;
75787;SDS011;64406;50.024;14.492;2023-03-01T15:00:37;18.88;;;11.55;;
75787;SDS011;64406;50.024;14.492;2023-03-01T15:03:11;21.20;;;11.80;;
75787;SDS011;64406;50.024;14.492;2023-03-01T15:05:43;17.83;;;12.30;;
75787;SDS011;64406;50.024;14.492;2023-03-01T15:08:27;19.23;;;11.73;;
75787;SDS011;64406;50.024;14.492;2023-03-01T15:11:04;17.08;;;10.93;;
75787;SDS011;64406;50.024;14.492;2023-03-01T15:13:42;19.17;;;12.50;;
75787;SDS011;64406;50.024;14.492;2023-03-01T15:18:46;17.05;;;11.13;;
75787;SDS011;64406;50.024;14.492;2023-03-01T15:23:54;17.95;;;9.93;;
75787;SDS011;64406;50.024;14.492;2023-03-01T15:26:29;17.48;;;10.57;;
75787;SDS011;64406;50.024;14.492;2023-03-01T15:28:58;19.40;;;11.98;;
75787;SDS011;64406;50.024;14.492;2023-03-01T15:33:52;16.88;;;10.75;;
75787;SDS011;64406;50.024;14.492;2023-03-01T15:39:31;18.00;;;9.98;;
75787;SDS011;64406;50.024;14.492;2023-03-01T15:45:10;17.75;;;10.07;;
75787;SDS011;64406;50.024;14.492;2023-03-01T15:47:47;17.75;;;10.73;;
75787;SDS011;64406;50.024;14.492;2023-03-01T15:52:51;24.05;;;10.43;;
75787;SDS011;64406;50.024;14.492;2023-03-01T15:55:19;21.27;;;10.70;;
75787;SDS011;64406;50.024;14.492;2023-03-01T15:57:46;20.80;;;9.93;;
75787;SDS011;64406;50.024;14.492;2023-03-01T16:00:13;17.50;;;10.63;;
75787;SDS011;64406;50.024;14.492;2023-03-01T16:02:40;21.23;;;10.50;;
75787;SDS011;64406;50.024;14.492;2023-03-01T16:05:23;18.38;;;10.48;;
75787;SDS011;64406;50.024;14.492;2023-03-01T16:07:57;18.85;;;9.70;;
75787;SDS011;64406;50.024;14.492;2023-03-01T16:10:23;16.65;;;9.27;;
75787;SDS011;64406;50.024;14.492;2023-03-01T16:12:49;22.83;;;10.73;;
75787;SDS011;64406;50.024;14.492;2023-03-01T16:17:53;19.50;;;9.57;;
75787;SDS011;64406;50.024;14.492;2023-03-01T16:20:19;14.68;;;9.75;;
75787;SDS011;64406;50.024;14.492;2023-03-01T16:22:45;19.85;;;9.77;;
75787;SDS011;64406;50.024;14.492;2023-03-01T16:25:12;20.25;;;9.98;;
75787;SDS011;64406;50.024;14.492;2023-03-01T16:27:44;15.52;;;8.63;;
75787;SDS011;64406;50.024;14.492;2023-03-01T16:30:11;22.10;;;9.85;;
75787;SDS011;64406;50.024;14.492;2023-03-01T16:32:39;17.77;;;9.82;;
75787;SDS011;64406;50.024;14.492;2023-03-01T16:35:09;17.60;;;9.15;;
75787;SDS011;64406;50.024;14.492;2023-03-01T16:37:37;19.38;;;9.88;;
75787;SDS011;64406;50.024;14.492;2023-03-01T16:40:04;14.75;;;9.45;;
75787;SDS011;64406;50.024;14.492;2023-03-01T16:42:35;17.95;;;9.93;;
75787;SDS011;64406;50.024;14.492;2023-03-01T16:45:02;22.77;;;10.50;;
75787;SDS011;64406;50.024;14.492;2023-03-01T16:47:29;18.70;;;9.52;;